sensor_id;sensor_type;location;lat;lon;timestamp;P1;durP1;ratioP1;P2;durP2;ratioP2
68438;SDS011;55421;51.600;5.718;2023-03-01T00:01:38;15.00;;;7.90;;
68438;SDS011;55421;51.600;5.718;2023-03-01T00:04:04;12.00;;;7.50;;
68438;SDS011;55421;51.600;5.718;2023-03-01T00:09:01;13.20;;;8.10;;
68438;SDS011;55421;51.600;5.718;2023-03-01T00:11:29;14.20;;;8.50;;
68438;SDS011;55421;51.600;5.718;2023-03-01T00:13:59;13.40;;;8.10;;
68438;SDS011;55421;51.600;5.718;2023-03-01T00:16:30;14.00;;;8.10;;
68438;SDS011;55421;51.600;5.718;2023-03-01T00:18:59;15.00;;;8.40;;
68438;SDS011;55421;51.600;5.718;2023-03-01T00:21:26;12.40;;;7.70;;
68438;SDS011;55421;51.600;5.718;2023-03-01T00:23:54;12.90;;;8.40;;
68438;SDS011;55421;51.600;5.718;2023-03-01T00:26:22;14.80;;;8.10;;
68438;SDS011;55421;51.600;5.718;2023-03-01T00:28:50;12.20;;;8.00;;
68438;SDS011;55421;51.600;5.718;2023-03-01T00:31:21;11.80;;;7.10;;
68438;SDS011;55421;51.600;5.718;2023-03-01T00:33:52;13.20;;;7.70;;
68438;SDS011;55421;51.600;5.718;2023-03-01T00:36:25;17.00;;;7.40;;
68438;SDS011;55421;51.600;5.718;2023-03-01T00:38:54;11.10;;;7.10;;
68438;SDS011;55421;51.600;5.718;2023-03-01T00:41:22;12.60;;;7.10;;
68438;SDS011;55421;51.600;5.718;2023-03-01T00:43:50;13.20;;;8.00;;
68438;SDS011;55421;51.600;5.718;2023-03-01T00:46:19;13.70;;;8.30;;
68438;SDS011;55421;51.600;5.718;2023-03-01T00:48:48;14.30;;;8.00;;
68438;SDS011;55421;51.600;5.718;2023-03-01T00:51:20;12.70;;;7.60;;
68438;SDS011;55421;51.600;5.718;2023-03-01T00:53:55;14.70;;;8.20;;
68438;SDS011;55421;51.600;5.718;2023-03-01T00:56:25;13.30;;;7.60;;
68438;SDS011;55421;51.600;5.718;2023-03-01T00:58:52;13.80;;;7.50;;
68438;SDS011;55421;51.600;5.718;2023-03-01T01:01:22;11.60;;;7.70;;
68438;SDS011;55421;51.600;5.718;2023-03-01T01:04:01;14.30;;;7.80;;
68438;SDS011;55421;51.600;5.718;2023-03-01T01:06:33;13.40;;;7.30;;
68438;SDS011;55421;51.600;5.718;2023-03-01T01:09:03;12.10;;;7.10;;
68438;SDS011;55421;51.600;5.718;2023-03-01T01:11:33;14.00;;;7.70;;
68438;SDS011;55421;51.600;5.718;2023-03-01T01:14:01;14.00;;;7.10;;
68438;SDS011;55421;51.600;5.718;2023-03-01T01:16:29;10.00;;;6.30;;
68438;SDS011;55421;51.600;5.718;2023-03-01T01:18:56;10.50;;;6.70;;
68438;SDS011;55421;51.600;5.718;2023-03-01T01:21:24;12.80;;;7.20;;
68438;SDS011;55421;51.600;5.718;2023-03-01T01:23:51;15.80;;;10.10;;
68438;SDS011;55421;51.600;5.718;2023-03-01T01:26:24;10.80;;;7.10;;
68438;SDS011;55421;51.600;5.718;2023-03-01T01:28:53;12.20;;;6.80;;
68438;SDS011;55421;51.600;5.718;2023-03-01T01:31:20;11.30;;;7.10;;
68438;SDS011;55421;51.600;5.718;2023-03-01T01:33:50;14.20;;;8.20;;
68438;SDS011;55421;51.600;5.718;2023-03-01T01:36:20;13.30;;;7.80;;
68438;SDS011;55421;51.600;5.718;2023-03-01T01:38:47;14.10;;;7.70;;
68438;SDS011;55421;51.600;5.718;2023-03-01T01:41:15;13.00;;;7.60;;
68438;SDS011;55421;51.600;5.718;2023-03-01T01:43:45;11.90;;;6.90;;
68438;SDS011;55421;51.600;5.718;2023-03-01T01:48:59;15.00;;;7.30;;
68438;SDS011;55421;51.600;5.718;2023-03-01T01:51:33;13.60;;;7.10;;
68438;SDS011;55421;51.600;5.718;2023-03-01T01:54:10;14.00;;;7.80;;
68438;SDS011;55421;51.600;5.718;2023-03-01T01:56:44;12.30;;;7.90;;
68438;SDS011;55421;51.600;5.718;2023-03-01T01:59:16;11.30;;;6.80;;
68438;SDS011;55421;51.600;5.718;2023-03-01T02:01:43;15.10;;;7.40;;
68438;SDS011;55421;51.600;5.718;2023-03-01T02:04:10;11.00;;;6.70;;
68438;SDS011;55421;51.600;5.718;2023-03-01T02:06:40;14.70;;;7.90;;
68438;SDS011;55421;51.600;5.718;2023-03-01T02:09:14;12.60;;;7.60;;
68438;SDS011;55421;51.600;5.718;2023-03-01T02:11:43;13.70;;;7.80;;
68438;SDS011;55421;51.600;5.718;2023-03-01T02:14:10;12.60;;;8.00;;
68438;SDS011;55421;51.600;5.718;2023-03-01T02:16:37;14.40;;;8.10;;
68438;SDS011;55421;51.600;5.718;2023-03-01T02:19:04;12.30;;;8.00;;
68438;SDS011;55421;51.600;5.718;2023-03-01T02:22:25;14.10;;;8.30;;
68438;SDS011;55421;51.600;5.718;2023-03-01T02:27:48;14.40;;;7.60;;
68438;SDS011;55421;51.600;5.718;2023-03-01T02:30:19;13.70;;;7.90;;
68438;SDS011;55421;51.600;5.718;2023-03-01T02:32:49;14.80;;;7.70;;
68438;SDS011;55421;51.600;5.718;2023-03-01T02:35:17;13.70;;;8.50;;
68438;SDS011;55421;51.600;5.718;2023-03-01T02:37:46;17.70;;;8.50;;
68438;SDS011;55421;51.600;5.718;2023-03-01T02:42:49;15.20;;;8.60;;
68438;SDS011;55421;51.600;5.718;2023-03-01T02:45:19;13.20;;;8.40;;
68438;SDS011;55421;51.600;5.718;2023-03-01T02:47:46;20.40;;;8.80;;
68438;SDS011;55421;51.600;5.718;2023-03-01T02:50:33;13.30;;;7.20;;
68438;SDS011;55421;51.600;5.718;2023-03-01T02:53:22;12.30;;;7.00;;
68438;SDS011;55421;51.600;5.718;2023-03-01T02:55:56;12.10;;;7.60;;
68438;SDS011;55421;51.600;5.718;2023-03-01T02:58:23;12.30;;;8.30;;
68438;SDS011;55421;51.600;5.718;2023-03-01T03:00:50;14.90;;;8.40;;
68438;SDS011;55421;51.600;5.718;2023-03-01T03:03:19;16.40;;;8.10;;
68438;SDS011;55421;51.600;5.718;2023-03-01T03:05:47;15.50;;;8.00;;
68438;SDS011;55421;51.600;5.718;2023-03-01T03:08:14;13.00;;;8.10;;
68438;SDS011;55421;51.600;5.718;2023-03-01T03:10:49;14.10;;;8.10;;
68438;SDS011;55421;51.600;5.718;2023-03-01T03:13:16;12.50;;;7.00;;
68438;SDS011;55421;51.600;5.718;2023-03-01T03:15:43;14.20;;;7.20;;
68438;SDS011;55421;51.600;5.718;2023-03-01T03:18:16;12.50;;;8.30;;
68438;SDS011;55421;51.600;5.718;2023-03-01T03:20:43;13.40;;;8.30;;
68438;SDS011;55421;51.600;5.718;2023-03-01T03:23:11;13.80;;;8.40;;
68438;SDS011;55421;51.600;5.718;2023-03-01T03:25:38;13.60;;;8.40;;
68438;SDS011;55421;51.600;5.718;2023-03-01T03:28:06;14.10;;;8.30;;
68438;SDS011;55421;51.600;5.718;2023-03-01T03:30:38;16.00;;;8.60;;
68438;SDS011;55421;51.600;5.718;2023-03-01T03:33:07;13.10;;;8.10;;
68438;SDS011;55421;51.600;5.718;2023-03-01T03:35:39;12.30;;;7.50;;
68438;SDS011;55421;51.600;5.718;2023-03-01T03:38:10;13.40;;;7.30;;
68438;SDS011;55421;51.600;5.718;2023-03-01T03:40:47;12.70;;;7.50;;
68438;SDS011;55421;51.600;5.718;2023-03-01T03:43:32;15.50;;;8.50;;
68438;SDS011;55421;51.600;5.718;2023-03-01T03:46:01;14.70;;;8.80;;
68438;SDS011;55421;51.600;5.718;2023-03-01T03:48:37;16.60;;;8.70;;
68438;SDS011;55421;51.600;5.718;2023-03-01T03:51:13;13.80;;;8.10;;
68438;SDS011;55421;51.600;5.718;2023-03-01T03:53:42;19.80;;;9.50;;
68438;SDS011;55421;51.600;5.718;2023-03-01T03:56:09;23.60;;;15.70;;
68438;SDS011;55421;51.600;5.718;2023-03-01T03:58:37;14.00;;;7.50;;
68438;SDS011;55421;51.600;5.718;2023-03-01T04:01:03;12.70;;;7.90;;
68438;SDS011;55421;51.600;5.718;2023-03-01T04:03:31;17.30;;;8.70;;
68438;SDS011;55421;51.600;5.718;2023-03-01T04:05:59;13.30;;;8.40;;
68438;SDS011;55421;51.600;5.718;2023-03-01T04:08:27;15.60;;;9.00;;
68438;SDS011;55421;51.600;5.718;2023-03-01T04:11:02;16.60;;;9.20;;
68438;SDS011;55421;51.600;5.718;2023-03-01T04:13:55;15.60;;;9.30;;
68438;SDS011;55421;51.600;5.718;2023-03-01T04:16:24;15.50;;;8.80;;
68438;SDS011;55421;51.600;5.718;2023-03-01T04:18:51;15.60;;;9.10;;
68438;SDS011;55421;51.600;5.718;2023-03-01T04:21:19;16.60;;;8.40;;
68438;SDS011;55421;51.600;5.718;2023-03-01T04:23:46;14.80;;;8.10;;
68438;SDS011;55421;51.600;5.718;2023-03-01T04:26:13;13.10;;;7.80;;
68438;SDS011;55421;51.600;5.718;2023-03-01T04:28:40;13.60;;;8.50;;
68438;SDS011;55421;51.600;5.718;2023-03-01T04:31:17;16.50;;;8.90;;
68438;SDS011;55421;51.600;5.718;2023-03-01T04:33:49;18.20;;;9.00;;
68438;SDS011;55421;51.600;5.718;2023-03-01T04:36:19;17.20;;;9.20;;
68438;SDS011;55421;51.600;5.718;2023-03-01T04:38:47;17.50;;;9.10;;
68438;SDS011;55421;51.600;5.718;2023-03-01T04:41:17;15.50;;;9.30;;
68438;SDS011;55421;51.600;5.718;2023-03-01T04:46:13;14.00;;;8.10;;
68438;SDS011;55421;51.600;5.718;2023-03-01T04:48:44;11.60;;;7.20;;
68438;SDS011;55421;51.600;5.718;2023-03-01T04:51:12;14.90;;;8.00;;
68438;SDS011;55421;51.600;5.718;2023-03-01T04:53:40;14.70;;;8.50;;
68438;SDS011;55421;51.600;5.718;2023-03-01T04:56:07;17.20;;;9.50;;
68438;SDS011;55421;51.600;5.718;2023-03-01T04:58:34;15.30;;;8.80;;
68438;SDS011;55421;51.600;5.718;2023-03-01T05:01:01;14.90;;;8.40;;
68438;SDS011;55421;51.600;5.718;2023-03-01T05:03:27;19.30;;;9.40;;
68438;SDS011;55421;51.600;5.718;2023-03-01T05:05:58;16.50;;;9.10;;
68438;SDS011;55421;51.600;5.718;2023-03-01T05:08:25;13.70;;;7.90;;
68438;SDS011;55421;51.600;5.718;2023-03-01T05:10:53;10.80;;;7.40;;
68438;SDS011;55421;51.600;5.718;2023-03-01T05:13:21;14.80;;;8.10;;
68438;SDS011;55421;51.600;5.718;2023-03-01T05:15:57;15.50;;;8.60;;
68438;SDS011;55421;51.600;5.718;2023-03-01T05:18:26;15.20;;;8.80;;
68438;SDS011;55421;51.600;5.718;2023-03-01T05:20:55;15.30;;;8.10;;
68438;SDS011;55421;51.600;5.718;2023-03-01T05:23:27;14.60;;;8.80;;
68438;SDS011;55421;51.600;5.718;2023-03-01T05:25:54;19.00;;;8.40;;
68438;SDS011;55421;51.600;5.718;2023-03-01T05:28:23;13.70;;;8.00;;
68438;SDS011;55421;51.600;5.718;2023-03-01T05:30:49;12.00;;;7.70;;
68438;SDS011;55421;51.600;5.718;2023-03-01T05:33:17;14.90;;;6.80;;
68438;SDS011;55421;51.600;5.718;2023-03-01T05:35:45;14.50;;;7.80;;
68438;SDS011;55421;51.600;5.718;2023-03-01T05:38:12;15.10;;;8.50;;
68438;SDS011;55421;51.600;5.718;2023-03-01T05:40:40;16.90;;;8.90;;
68438;SDS011;55421;51.600;5.718;2023-03-01T05:43:11;16.30;;;9.10;;
68438;SDS011;55421;51.600;5.718;2023-03-01T05:45:40;17.70;;;8.50;;
68438;SDS011;55421;51.600;5.718;2023-03-01T05:48:07;17.50;;;8.90;;
68438;SDS011;55421;51.600;5.718;2023-03-01T05:50:37;16.30;;;8.60;;
68438;SDS011;55421;51.600;5.718;2023-03-01T05:53:15;18.00;;;9.10;;
68438;SDS011;55421;51.600;5.718;2023-03-01T05:55:45;17.00;;;9.50;;
68438;SDS011;55421;51.600;5.718;2023-03-01T05:58:15;12.90;;;8.20;;
68438;SDS011;55421;51.600;5.718;2023-03-01T06:00:44;13.30;;;7.90;;
68438;SDS011;55421;51.600;5.718;2023-03-01T06:03:14;14.30;;;7.90;;
68438;SDS011;55421;51.600;5.718;2023-03-01T06:05:42;15.00;;;8.50;;
68438;SDS011;55421;51.600;5.718;2023-03-01T06:08:10;14.30;;;9.30;;
68438;SDS011;55421;51.600;5.718;2023-03-01T06:10:38;16.00;;;9.20;;
68438;SDS011;55421;51.600;5.718;2023-03-01T06:13:05;15.90;;;9.00;;
68438;SDS011;55421;51.600;5.718;2023-03-01T06:15:34;15.70;;;8.10;;
68438;SDS011;55421;51.600;5.718;2023-03-01T06:18:01;20.50;;;9.10;;
68438;SDS011;55421;51.600;5.718;2023-03-01T06:20:28;16.70;;;9.30;;
68438;SDS011;55421;51.600;5.718;2023-03-01T06:22:55;13.30;;;8.20;;
68438;SDS011;55421;51.600;5.718;2023-03-01T06:25:24;10.70;;;7.20;;
68438;SDS011;55421;51.600;5.718;2023-03-01T06:27:51;16.10;;;8.50;;
68438;SDS011;55421;51.600;5.718;2023-03-01T06:30:20;18.20;;;8.90;;
68438;SDS011;55421;51.600;5.718;2023-03-01T06:32:47;16.50;;;8.80;;
68438;SDS011;55421;51.600;5.718;2023-03-01T06:35:16;14.20;;;8.90;;
68438;SDS011;55421;51.600;5.718;2023-03-01T06:37:45;16.10;;;9.20;;
68438;SDS011;55421;51.600;5.718;2023-03-01T06:40:14;16.10;;;9.50;;
68438;SDS011;55421;51.600;5.718;2023-03-01T06:42:42;15.50;;;8.80;;
68438;SDS011;55421;51.600;5.718;2023-03-01T06:45:13;15.20;;;8.60;;
68438;SDS011;55421;51.600;5.718;2023-03-01T06:47:39;15.00;;;7.40;;
68438;SDS011;55421;51.600;5.718;2023-03-01T06:50:06;15.40;;;9.00;;
68438;SDS011;55421;51.600;5.718;2023-03-01T06:52:33;16.80;;;9.20;;
68438;SDS011;55421;51.600;5.718;2023-03-01T06:55:00;17.30;;;9.80;;
68438;SDS011;55421;51.600;5.718;2023-03-01T06:57:27;20.20;;;9.90;;
68438;SDS011;55421;51.600;5.718;2023-03-01T06:59:54;19.80;;;10.20;;
68438;SDS011;55421;51.600;5.718;2023-03-01T07:02:21;16.50;;;8.90;;
68438;SDS011;55421;51.600;5.718;2023-03-01T07:04:51;17.30;;;10.00;;
68438;SDS011;55421;51.600;5.718;2023-03-01T07:07:18;16.50;;;9.60;;
68438;SDS011;55421;51.600;5.718;2023-03-01T07:09:45;12.70;;;7.90;;
68438;SDS011;55421;51.600;5.718;2023-03-01T07:12:12;16.10;;;8.20;;
68438;SDS011;55421;51.600;5.718;2023-03-01T07:14:43;23.30;;;9.60;;
68438;SDS011;55421;51.600;5.718;2023-03-01T07:17:13;18.30;;;10.30;;
68438;SDS011;55421;51.600;5.718;2023-03-01T07:19:40;18.20;;;9.90;;
68438;SDS011;55421;51.600;5.718;2023-03-01T07:22:06;17.90;;;10.10;;
68438;SDS011;55421;51.600;5.718;2023-03-01T07:24:36;18.10;;;10.00;;
68438;SDS011;55421;51.600;5.718;2023-03-01T07:27:02;16.40;;;9.20;;
68438;SDS011;55421;51.600;5.718;2023-03-01T07:29:29;18.60;;;10.00;;
68438;SDS011;55421;51.600;5.718;2023-03-01T07:31:56;19.40;;;9.40;;
68438;SDS011;55421;51.600;5.718;2023-03-01T07:34:22;15.80;;;8.90;;
68438;SDS011;55421;51.600;5.718;2023-03-01T07:36:49;18.00;;;10.10;;
68438;SDS011;55421;51.600;5.718;2023-03-01T07:39:15;16.30;;;10.20;;
68438;SDS011;55421;51.600;5.718;2023-03-01T07:41:42;19.00;;;10.60;;
68438;SDS011;55421;51.600;5.718;2023-03-01T07:44:08;21.00;;;10.80;;
68438;SDS011;55421;51.600;5.718;2023-03-01T07:46:35;20.40;;;10.50;;
68438;SDS011;55421;51.600;5.718;2023-03-01T07:49:01;19.90;;;10.40;;
68438;SDS011;55421;51.600;5.718;2023-03-01T07:51:28;14.40;;;9.00;;
68438;SDS011;55421;51.600;5.718;2023-03-01T07:53:55;16.10;;;9.20;;
68438;SDS011;55421;51.600;5.718;2023-03-01T07:56:21;14.90;;;9.60;;
68438;SDS011;55421;51.600;5.718;2023-03-01T07:58:48;20.30;;;10.20;;
68438;SDS011;55421;51.600;5.718;2023-03-01T08:01:17;18.40;;;10.20;;
68438;SDS011;55421;51.600;5.718;2023-03-01T08:03:45;16.80;;;10.10;;
68438;SDS011;55421;51.600;5.718;2023-03-01T08:06:15;18.20;;;10.00;;
68438;SDS011;55421;51.600;5.718;2023-03-01T08:08:42;14.50;;;9.00;;
68438;SDS011;55421;51.600;5.718;2023-03-01T08:11:11;18.90;;;9.80;;
68438;SDS011;55421;51.600;5.718;2023-03-01T08:13:39;12.80;;;8.00;;
68438;SDS011;55421;51.600;5.718;2023-03-01T08:16:12;16.80;;;9.20;;
68438;SDS011;55421;51.600;5.718;2023-03-01T08:18:41;17.20;;;8.90;;
68438;SDS011;55421;51.600;5.718;2023-03-01T08:21:11;19.20;;;10.00;;
68438;SDS011;55421;51.600;5.718;2023-03-01T08:23:40;17.80;;;9.50;;
68438;SDS011;55421;51.600;5.718;2023-03-01T08:26:18;15.00;;;9.60;;
68438;SDS011;55421;51.600;5.718;2023-03-01T08:28:48;17.40;;;9.80;;
68438;SDS011;55421;51.600;5.718;2023-03-01T08:31:25;16.30;;;9.30;;
68438;SDS011;55421;51.600;5.718;2023-03-01T08:33:55;11.10;;;7.20;;
68438;SDS011;55421;51.600;5.718;2023-03-01T08:36:32;13.00;;;7.90;;
68438;SDS011;55421;51.600;5.718;2023-03-01T08:39:01;12.10;;;7.60;;
68438;SDS011;55421;51.600;5.718;2023-03-01T08:41:28;15.10;;;8.30;;
68438;SDS011;55421;51.600;5.718;2023-03-01T08:43:55;13.30;;;8.70;;
68438;SDS011;55421;51.600;5.718;2023-03-01T08:46:26;14.40;;;8.70;;
68438;SDS011;55421;51.600;5.718;2023-03-01T08:48:57;17.90;;;9.30;;
68438;SDS011;55421;51.600;5.718;2023-03-01T08:51:25;14.30;;;8.80;;
68438;SDS011;55421;51.600;5.718;2023-03-01T08:53:52;15.90;;;9.00;;
68438;SDS011;55421;51.600;5.718;2023-03-01T08:56:19;15.40;;;9.40;;
68438;SDS011;55421;51.600;5.718;2023-03-01T08:58:46;14.30;;;8.50;;
68438;SDS011;55421;51.600;5.718;2023-03-01T09:01:17;15.00;;;8.70;;
68438;SDS011;55421;51.600;5.718;2023-03-01T09:03:45;16.10;;;9.40;;
68438;SDS011;55421;51.600;5.718;2023-03-01T09:06:12;15.70;;;8.70;;
68438;SDS011;55421;51.600;5.718;2023-03-01T09:08:45;16.60;;;9.50;;
68438;SDS011;55421;51.600;5.718;2023-03-01T09:11:16;16.50;;;8.80;;
68438;SDS011;55421;51.600;5.718;2023-03-01T09:13:47;15.70;;;8.60;;
68438;SDS011;55421;51.600;5.718;2023-03-01T09:16:17;14.50;;;8.80;;
68438;SDS011;55421;51.600;5.718;2023-03-01T09:18:48;15.40;;;7.40;;
68438;SDS011;55421;51.600;5.718;2023-03-01T09:21:17;12.20;;;7.30;;
68438;SDS011;55421;51.600;5.718;2023-03-01T09:23:47;10.40;;;6.70;;
68438;SDS011;55421;51.600;5.718;2023-03-01T09:26:19;15.60;;;8.00;;
68438;SDS011;55421;51.600;5.718;2023-03-01T09:28:52;13.40;;;7.90;;
68438;SDS011;55421;51.600;5.718;2023-03-01T09:31:22;14.30;;;8.70;;
68438;SDS011;55421;51.600;5.718;2023-03-01T09:33:51;14.30;;;8.40;;
68438;SDS011;55421;51.600;5.718;2023-03-01T09:36:22;13.00;;;7.90;;
68438;SDS011;55421;51.600;5.718;2023-03-01T09:38:54;13.90;;;8.10;;
68438;SDS011;55421;51.600;5.718;2023-03-01T09:41:41;14.20;;;8.20;;
68438;SDS011;55421;51.600;5.718;2023-03-01T09:44:45;14.00;;;8.40;;
68438;SDS011;55421;51.600;5.718;2023-03-01T09:47:36;13.30;;;8.50;;
68438;SDS011;55421;51.600;5.718;2023-03-01T09:50:11;14.00;;;8.10;;
68438;SDS011;55421;51.600;5.718;2023-03-01T09:52:46;12.40;;;7.60;;
68438;SDS011;55421;51.600;5.718;2023-03-01T09:55:43;14.60;;;8.20;;
68438;SDS011;55421;51.600;5.718;2023-03-01T10:09:43;12.60;;;7.90;;
68438;SDS011;55421;51.600;5.718;2023-03-01T10:12:14;10.10;;;7.30;;
68438;SDS011;55421;51.600;5.718;2023-03-01T10:17:47;17.80;;;8.60;;
68438;SDS011;55421;51.600;5.718;2023-03-01T10:20:24;12.50;;;7.10;;
68438;SDS011;55421;51.600;5.718;2023-03-01T10:22:52;11.70;;;7.20;;
68438;SDS011;55421;51.600;5.718;2023-03-01T10:29:04;12.10;;;7.30;;
68438;SDS011;55421;51.600;5.718;2023-03-01T10:31:45;12.40;;;7.60;;
68438;SDS011;55421;51.600;5.718;2023-03-01T10:34:35;13.20;;;8.20;;
68438;SDS011;55421;51.600;5.718;2023-03-01T10:37:20;13.10;;;8.00;;
68438;SDS011;55421;51.600;5.718;2023-03-01T10:40:05;12.10;;;7.80;;
68438;SDS011;55421;51.600;5.718;2023-03-01T10:42:48;13.80;;;8.60;;
68438;SDS011;55421;51.600;5.718;2023-03-01T10:45:29;14.30;;;8.30;;
68438;SDS011;55421;51.600;5.718;2023-03-01T10:50:47;12.90;;;8.10;;
68438;SDS011;55421;51.600;5.718;2023-03-01T10:53:28;13.60;;;7.80;;
68438;SDS011;55421;51.600;5.718;2023-03-01T10:56:06;13.30;;;8.40;;
68438;SDS011;55421;51.600;5.718;2023-03-01T10:58:36;13.60;;;8.10;;
68438;SDS011;55421;51.600;5.718;2023-03-01T11:01:29;12.90;;;8.10;;
68438;SDS011;55421;51.600;5.718;2023-03-01T11:06:34;13.20;;;8.10;;
68438;SDS011;55421;51.600;5.718;2023-03-01T11:09:18;13.30;;;8.70;;
68438;SDS011;55421;51.600;5.718;2023-03-01T11:11:55;13.00;;;8.10;;
68438;SDS011;55421;51.600;5.718;2023-03-01T11:14:25;11.60;;;7.60;;
68438;SDS011;55421;51.600;5.718;2023-03-01T11:17:13;11.90;;;7.20;;
68438;SDS011;55421;51.600;5.718;2023-03-01T11:20:00;12.60;;;7.60;;
68438;SDS011;55421;51.600;5.718;2023-03-01T11:22:45;11.80;;;7.40;;
68438;SDS011;55421;51.600;5.718;2023-03-01T11:25:29;12.40;;;7.80;;
68438;SDS011;55421;51.600;5.718;2023-03-01T11:28:03;13.40;;;7.70;;
68438;SDS011;55421;51.600;5.718;2023-03-01T11:30:55;11.10;;;7.70;;
68438;SDS011;55421;51.600;5.718;2023-03-01T11:36:44;11.40;;;6.80;;
68438;SDS011;55421;51.600;5.718;2023-03-01T11:39:43;10.50;;;7.10;;
68438;SDS011;55421;51.600;5.718;2023-03-01T11:42:21;11.90;;;7.40;;
68438;SDS011;55421;51.600;5.718;2023-03-01T11:44:55;20.10;;;9.00;;
68438;SDS011;55421;51.600;5.718;2023-03-01T11:47:37;12.70;;;7.90;;
68438;SDS011;55421;51.600;5.718;2023-03-01T11:50:28;11.40;;;7.20;;
68438;SDS011;55421;51.600;5.718;2023-03-01T11:59:07;12.50;;;7.30;;
68438;SDS011;55421;51.600;5.718;2023-03-01T12:01:48;13.70;;;8.00;;
68438;SDS011;55421;51.600;5.718;2023-03-01T12:07:24;12.30;;;7.90;;
68438;SDS011;55421;51.600;5.718;2023-03-01T12:10:31;16.10;;;8.40;;
68438;SDS011;55421;51.600;5.718;2023-03-01T12:16:34;13.30;;;7.50;;
68438;SDS011;55421;51.600;5.718;2023-03-01T12:22:32;11.10;;;6.80;;
68438;SDS011;55421;51.600;5.718;2023-03-01T12:25:10;11.40;;;7.10;;
68438;SDS011;55421;51.600;5.718;2023-03-01T12:33:26;9.80;;;6.90;;
68438;SDS011;55421;51.600;5.718;2023-03-01T12:36:26;12.70;;;7.50;;
68438;SDS011;55421;51.600;5.718;2023-03-01T12:39:28;11.00;;;6.80;;
68438;SDS011;55421;51.600;5.718;2023-03-01T12:42:38;13.40;;;7.10;;
68438;SDS011;55421;51.600;5.718;2023-03-01T12:48:24;15.10;;;7.50;;
68438;SDS011;55421;51.600;5.718;2023-03-01T12:50:54;14.00;;;7.30;;
68438;SDS011;55421;51.600;5.718;2023-03-01T12:53:29;13.40;;;7.40;;
68438;SDS011;55421;51.600;5.718;2023-03-01T12:56:10;10.70;;;6.20;;
68438;SDS011;55421;51.600;5.718;2023-03-01T12:58:54;11.20;;;7.00;;
68438;SDS011;55421;51.600;5.718;2023-03-01T13:01:48;10.60;;;7.00;;
68438;SDS011;55421;51.600;5.718;2023-03-01T13:04:47;12.30;;;7.30;;
68438;SDS011;55421;51.600;5.718;2023-03-01T13:07:48;12.10;;;7.20;;
68438;SDS011;55421;51.600;5.718;2023-03-01T13:10:29;9.80;;;6.90;;
68438;SDS011;55421;51.600;5.718;2023-03-01T13:15:36;10.30;;;6.70;;
68438;SDS011;55421;51.600;5.718;2023-03-01T13:18:26;10.70;;;7.70;;
68438;SDS011;55421;51.600;5.718;2023-03-01T13:20:56;9.90;;;6.50;;
68438;SDS011;55421;51.600;5.718;2023-03-01T13:23:27;7.50;;;5.40;;
68438;SDS011;55421;51.600;5.718;2023-03-01T13:26:15;9.30;;;6.70;;
68438;SDS011;55421;51.600;5.718;2023-03-01T13:34:06;12.10;;;7.20;;
68438;SDS011;55421;51.600;5.718;2023-03-01T13:37:19;10.70;;;6.50;;
68438;SDS011;55421;51.600;5.718;2023-03-01T13:39:47;11.40;;;6.90;;
68438;SDS011;55421;51.600;5.718;2023-03-01T13:42:36;11.50;;;7.20;;
68438;SDS011;55421;51.600;5.718;2023-03-01T13:45:19;11.20;;;7.50;;
68438;SDS011;55421;51.600;5.718;2023-03-01T13:47:53;12.50;;;7.20;;
68438;SDS011;55421;51.600;5.718;2023-03-01T13:50:28;11.50;;;6.20;;
68438;SDS011;55421;51.600;5.718;2023-03-01T13:53:14;10.70;;;7.50;;
68438;SDS011;55421;51.600;5.718;2023-03-01T13:55:48;11.90;;;7.30;;
68438;SDS011;55421;51.600;5.718;2023-03-01T13:58:29;11.90;;;7.40;;
68438;SDS011;55421;51.600;5.718;2023-03-01T14:01:03;12.10;;;7.40;;
68438;SDS011;55421;51.600;5.718;2023-03-01T14:03:33;12.60;;;7.20;;
68438;SDS011;55421;51.600;5.718;2023-03-01T14:06:18;10.20;;;6.50;;
68438;SDS011;55421;51.600;5.718;2023-03-01T14:14:29;9.90;;;6.70;;
68438;SDS011;55421;51.600;5.718;2023-03-01T14:20:18;11.40;;;6.90;;
68438;SDS011;55421;51.600;5.718;2023-03-01T14:22:48;9.00;;;6.40;;
68438;SDS011;55421;51.600;5.718;2023-03-01T14:25:32;12.60;;;7.40;;
68438;SDS011;55421;51.600;5.718;2023-03-01T14:28:10;11.20;;;6.90;;
68438;SDS011;55421;51.600;5.718;2023-03-01T14:33:26;11.30;;;7.40;;
68438;SDS011;55421;51.600;5.718;2023-03-01T14:36:02;11.00;;;7.50;;
68438;SDS011;55421;51.600;5.718;2023-03-01T14:38:39;12.50;;;7.40;;
68438;SDS011;55421;51.600;5.718;2023-03-01T14:41:10;12.00;;;7.50;;
68438;SDS011;55421;51.600;5.718;2023-03-01T14:43:45;10.20;;;7.60;;
68438;SDS011;55421;51.600;5.718;2023-03-01T14:46:38;14.50;;;8.40;;
68438;SDS011;55421;51.600;5.718;2023-03-01T14:49:19;16.60;;;7.80;;
68438;SDS011;55421;51.600;5.718;2023-03-01T14:51:59;12.10;;;7.10;;
68438;SDS011;55421;51.600;5.718;2023-03-01T14:54:41;11.20;;;7.50;;
68438;SDS011;55421;51.600;5.718;2023-03-01T14:59:45;12.40;;;7.50;;
68438;SDS011;55421;51.600;5.718;2023-03-01T15:02:18;13.60;;;8.30;;
68438;SDS011;55421;51.600;5.718;2023-03-01T15:04:51;13.10;;;7.80;;
68438;SDS011;55421;51.600;5.718;2023-03-01T15:07:27;12.00;;;7.90;;
68438;SDS011;55421;51.600;5.718;2023-03-01T15:09:59;13.30;;;8.00;;
68438;SDS011;55421;51.600;5.718;2023-03-01T15:15:20;14.30;;;9.10;;
68438;SDS011;55421;51.600;5.718;2023-03-01T15:17:54;17.40;;;8.60;;
68438;SDS011;55421;51.600;5.718;2023-03-01T15:20:25;12.80;;;7.80;;
68438;SDS011;55421;51.600;5.718;2023-03-01T15:22:54;14.50;;;8.90;;
68438;SDS011;55421;51.600;5.718;2023-03-01T15:25:27;13.00;;;8.10;;
68438;SDS011;55421;51.600;5.718;2023-03-01T15:27:57;12.90;;;8.00;;
68438;SDS011;55421;51.600;5.718;2023-03-01T15:36:02;12.60;;;8.20;;
68438;SDS011;55421;51.600;5.718;2023-03-01T15:38:56;15.10;;;8.90;;
68438;SDS011;55421;51.600;5.718;2023-03-01T15:41:57;13.80;;;7.90;;
68438;SDS011;55421;51.600;5.718;2023-03-01T15:44:30;14.10;;;8.50;;
68438;SDS011;55421;51.600;5.718;2023-03-01T15:47:20;16.50;;;9.00;;
68438;SDS011;55421;51.600;5.718;2023-03-01T15:49:53;14.20;;;8.80;;
68438;SDS011;55421;51.600;5.718;2023-03-01T15:52:28;14.00;;;8.40;;
68438;SDS011;55421;51.600;5.718;2023-03-01T15:55:19;11.70;;;8.00;;
68438;SDS011;55421;51.600;5.718;2023-03-01T15:57:48;13.40;;;8.60;;
68438;SDS011;55421;51.600;5.718;2023-03-01T16:00:17;13.80;;;8.40;;
68438;SDS011;55421;51.600;5.718;2023-03-01T16:02:44;14.80;;;8.50;;
68438;SDS011;55421;51.600;5.718;2023-03-01T16:07:49;14.80;;;8.90;;
68438;SDS011;55421;51.600;5.718;2023-03-01T16:10:16;16.60;;;9.20;;
68438;SDS011;55421;51.600;5.718;2023-03-01T16:12:43;15.20;;;9.20;;
68438;SDS011;55421;51.600;5.718;2023-03-01T16:15:22;14.70;;;8.80;;
68438;SDS011;55421;51.600;5.718;2023-03-01T16:17:53;15.40;;;9.10;;
68438;SDS011;55421;51.600;5.718;2023-03-01T16:20:20;12.50;;;8.20;;
68438;SDS011;55421;51.600;5.718;2023-03-01T16:22:48;15.50;;;8.50;;
68438;SDS011;55421;51.600;5.718;2023-03-01T16:25:17;15.00;;;8.50;;
68438;SDS011;55421;51.600;5.718;2023-03-01T16:30:17;12.60;;;8.10;;
68438;SDS011;55421;51.600;5.718;2023-03-01T16:32:46;12.80;;;8.50;;
68438;SDS011;55421;51.600;5.718;2023-03-01T16:35:15;16.60;;;8.30;;
68438;SDS011;55421;51.600;5.718;2023-03-01T16:37:44;13.60;;;8.40;;
68438;SDS011;55421;51.600;5.718;2023-03-01T16:40:23;14.10;;;7.70;;
68438;SDS011;55421;51.600;5.718;2023-03-01T16:42:53;14.20;;;8.50;;
68438;SDS011;55421;51.600;5.718;2023-03-01T16:45:35;13.20;;;8.20;;
68438;SDS011;55421;51.600;5.718;2023-03-01T16:48:03;13.70;;;8.00;;